createdAt,value
2022-12-23T01:56:32.618Z,32.42
2022-12-23T01:57:32.649Z,27.29
2022-12-23T01:58:32.573Z,28.89
2022-12-23T01:59:32.530Z,27.84
2022-12-23T02:00:32.532Z,32.59
2022-12-23T02:01:32.641Z,30.15
2022-12-23T02:02:32.622Z,30.55
2022-12-23T02:04:32.533Z,31.59
2022-12-23T02:05:32.485Z,29.79
2022-12-23T02:06:32.475Z,31.65
2022-12-23T02:07:32.483Z,31.80
2022-12-23T02:08:32.459Z,30.07
2022-12-23T02:09:32.444Z,32.44
2022-12-23T02:10:32.481Z,30.42
2022-12-23T02:11:32.431Z,33.31
2022-12-23T02:12:32.432Z,31.59
2022-12-23T02:13:32.410Z,33.35
2022-12-23T02:14:32.514Z,30.45
2022-12-23T02:15:32.399Z,30.33
2022-12-23T02:16:32.446Z,27.20
2022-12-23T02:17:32.370Z,30.60
2022-12-23T02:18:32.364Z,31.15
2022-12-23T02:19:32.342Z,32.46
2022-12-23T02:20:32.339Z,31.91
2022-12-23T02:21:32.345Z,26.96
2022-12-23T02:22:32.313Z,31.30
2022-12-23T02:23:32.289Z,33.35
2022-12-23T02:24:32.287Z,32.08
2022-12-23T02:25:32.259Z,30.68
2022-12-23T02:26:32.262Z,30.66
2022-12-23T02:27:32.252Z,29.06
2022-12-23T02:28:32.237Z,32.18
2022-12-23T02:29:32.222Z,29.05
2022-12-23T02:30:32.256Z,29.57
2022-12-23T02:31:32.279Z,30.33
2022-12-23T02:32:32.190Z,30.56
2022-12-23T02:33:33.027Z,29.44
2022-12-23T02:34:32.164Z,30.89
2022-12-23T02:35:32.145Z,31.37
2022-12-23T02:36:32.148Z,30.99
2022-12-23T02:37:32.132Z,30.26
2022-12-23T02:38:32.151Z,28.93
2022-12-23T02:39:32.204Z,31.32
2022-12-23T02:40:32.097Z,31.58
2022-12-23T02:41:32.082Z,32.17
2022-12-23T02:42:32.078Z,31.96
2022-12-23T02:43:32.084Z,30.47
2022-12-23T02:44:32.057Z,30.71
2022-12-23T02:45:32.043Z,30.03
2022-12-23T02:46:32.081Z,31.09
2022-12-23T02:47:32.052Z,29.58
2022-12-23T02:48:32.039Z,30.68
2022-12-23T02:49:32.019Z,30.86
2022-12-23T02:50:32.009Z,30.61
2022-12-23T02:51:32.007Z,30.22
2022-12-23T02:52:31.981Z,28.29
2022-12-23T02:53:31.973Z,28.77
2022-12-23T02:54:31.963Z,31.37
2022-12-23T02:55:31.965Z,28.64
2022-12-23T02:56:31.941Z,27.56
2022-12-23T02:57:31.938Z,30.71
2022-12-23T02:58:31.956Z,27.60
2022-12-23T02:59:31.928Z,28.02
2022-12-23T03:00:31.910Z,29.44
2022-12-23T03:01:32.003Z,26.99
2022-12-23T03:02:32.030Z,30.03
2022-12-23T03:03:31.986Z,29.03
2022-12-23T03:04:31.886Z,26.25
2022-12-23T03:05:31.878Z,29.30
2022-12-23T03:06:31.876Z,29.38
2022-12-23T03:07:31.883Z,29.97
2022-12-23T03:08:31.849Z,28.94
2022-12-23T03:09:31.920Z,29.18
2022-12-23T03:10:31.844Z,29.20
2022-12-23T03:11:31.845Z,29.03
2022-12-23T03:12:31.840Z,29.33
2022-12-23T03:13:31.836Z,28.88
2022-12-23T03:14:31.835Z,28.20
2022-12-23T03:15:31.843Z,27.20
2022-12-23T03:16:31.806Z,30.03
2022-12-23T03:17:31.806Z,28.82
2022-12-23T03:18:31.794Z,27.52
2022-12-23T03:19:31.892Z,25.55
2022-12-23T03:20:31.791Z,29.96
2022-12-23T03:21:31.771Z,29.15
2022-12-23T03:22:31.766Z,28.76
2022-12-23T03:23:31.762Z,29.18
2022-12-23T03:24:31.740Z,27.70
2022-12-23T03:25:31.735Z,27.05
2022-12-23T03:26:31.728Z,28.39
2022-12-23T03:27:31.714Z,28.52
2022-12-23T03:28:31.711Z,29.19
2022-12-23T03:29:31.686Z,27.19
2022-12-23T03:30:31.667Z,27.06
2022-12-23T03:31:31.748Z,30.69
2022-12-23T03:32:31.644Z,29.62
2022-12-23T03:33:31.677Z,29.74
2022-12-23T03:34:31.644Z,27.81
2022-12-23T03:35:31.606Z,29.19
2022-12-23T03:36:31.599Z,30.55
2022-12-23T03:37:31.597Z,31.88
2022-12-23T03:38:31.573Z,29.07
2022-12-23T03:39:31.581Z,29.22
2022-12-23T03:40:31.552Z,30.12
2022-12-23T03:41:31.574Z,27.18
2022-12-23T03:42:31.540Z,30.73
2022-12-23T03:43:31.524Z,26.22
2022-12-23T03:44:31.660Z,25.75
2022-12-23T03:45:40.643Z,26.40
2022-12-23T03:46:32.629Z,26.65
2022-12-23T03:48:31.472Z,27.00
2022-12-23T03:49:31.512Z,29.59
2022-12-23T03:50:31.460Z,26.61
2022-12-23T03:51:31.439Z,28.61
2022-12-23T03:52:31.429Z,30.46
2022-12-23T03:53:31.425Z,27.58
2022-12-23T03:54:31.408Z,28.79
2022-12-23T03:55:31.402Z,27.83
2022-12-23T03:56:31.399Z,30.35
2022-12-23T03:57:31.379Z,29.79
2022-12-23T03:58:31.366Z,30.54
2022-12-23T03:59:31.499Z,30.69
2022-12-23T04:00:31.355Z,29.69
2022-12-23T04:01:31.404Z,27.42
2022-12-23T04:02:31.518Z,30.34
2022-12-23T04:03:31.390Z,26.82
2022-12-23T04:04:31.503Z,26.24
2022-12-23T04:05:31.317Z,30.68
2022-12-23T04:06:31.295Z,30.73
2022-12-23T04:07:31.293Z,31.69
2022-12-23T04:08:31.283Z,30.05
2022-12-23T04:09:31.279Z,29.11
2022-12-23T04:10:31.264Z,28.85
2022-12-23T04:11:31.254Z,27.81
2022-12-23T04:12:31.260Z,27.91
2022-12-23T04:13:31.261Z,28.24
2022-12-23T04:14:31.416Z,28.45
2022-12-23T04:15:31.237Z,26.26
2022-12-23T04:16:31.285Z,27.48
2022-12-23T04:17:31.224Z,28.31
2022-12-23T04:18:31.218Z,29.60
2022-12-23T04:19:31.209Z,27.02
2022-12-23T04:20:31.199Z,27.91
2022-12-23T04:21:31.186Z,30.67
2022-12-23T04:22:31.175Z,29.09
2022-12-23T04:23:31.174Z,28.56
2022-12-23T04:24:31.309Z,28.29
2022-12-23T04:25:31.181Z,28.58
2022-12-23T04:26:31.142Z,29.95
2022-12-23T04:27:31.126Z,29.75
2022-12-23T04:28:31.117Z,30.21
2022-12-23T04:29:31.117Z,27.95
2022-12-23T04:30:34.466Z,26.10
2022-12-23T04:31:31.113Z,26.36
2022-12-23T04:32:31.065Z,27.06
2022-12-23T04:33:31.055Z,27.33
2022-12-23T04:34:31.037Z,28.51
2022-12-23T04:36:31.024Z,30.87
2022-12-23T04:37:31.012Z,29.77
2022-12-23T04:38:30.998Z,29.76
2022-12-23T04:39:31.000Z,30.06
2022-12-23T04:40:30.994Z,30.05
2022-12-23T04:41:30.970Z,30.30
2022-12-23T04:42:30.964Z,30.76
2022-12-23T04:43:30.945Z,30.42
2022-12-23T04:44:30.947Z,26.00
2022-12-23T04:45:30.932Z,32.21
2022-12-23T04:46:30.923Z,30.22
2022-12-23T04:47:30.890Z,29.81
2022-12-23T04:48:30.874Z,29.40
2022-12-23T04:49:30.849Z,29.87
2022-12-23T04:50:30.830Z,31.52
2022-12-23T04:52:30.803Z,28.77
2022-12-23T05:01:30.865Z,27.88
2022-12-23T05:39:30.253Z,25.67
2022-12-23T05:40:31.145Z,27.95
2022-12-23T05:41:30.220Z,29.44
2022-12-23T05:42:30.213Z,26.56
2022-12-23T05:43:30.207Z,29.21
2022-12-23T05:44:30.191Z,31.49
2022-12-23T05:45:30.246Z,28.13
2022-12-23T05:46:30.224Z,29.72
2022-12-23T05:47:30.176Z,28.46
2022-12-23T05:48:30.156Z,27.80
2022-12-23T05:49:30.184Z,31.29
2022-12-23T05:50:30.137Z,29.80
2022-12-23T05:51:30.131Z,30.49
2022-12-23T05:52:30.104Z,29.44
2022-12-23T05:54:30.076Z,31.61
2022-12-23T10:58:22.130Z,35.36
2022-12-23T10:59:22.088Z,38.29
2022-12-23T11:00:22.104Z,35.81
2022-12-23T11:01:27.150Z,38.17
2022-12-23T11:02:23.194Z,38.34
2022-12-23T11:03:22.035Z,38.53
2022-12-23T11:04:21.933Z,38.70
2022-12-23T11:05:21.883Z,39.01
2022-12-23T11:06:21.853Z,38.42
2022-12-23T11:08:22.787Z,38.53
2022-12-23T11:09:21.750Z,38.95
2022-12-23T11:10:21.706Z,40.30
2022-12-23T11:11:21.708Z,41.14
2022-12-23T11:12:21.638Z,41.90
2022-12-23T11:13:21.602Z,40.93
2022-12-23T11:14:21.576Z,41.47
2022-12-23T11:15:21.538Z,41.68
2022-12-23T11:16:21.564Z,41.86
2022-12-23T11:17:21.509Z,41.97
2022-12-23T11:18:21.425Z,42.91
2022-12-23T11:19:21.386Z,43.07
2022-12-23T11:20:21.346Z,48.06
2022-12-23T11:21:21.311Z,44.28
2022-12-23T11:22:21.276Z,45.45
2022-12-23T11:23:21.250Z,44.76
2022-12-23T11:24:21.211Z,45.30
2022-12-23T11:25:21.179Z,43.39
2022-12-23T11:26:21.148Z,45.07
2022-12-23T11:27:21.138Z,44.29
2022-12-23T11:28:21.102Z,44.49
2022-12-23T11:29:21.045Z,44.02
2022-12-23T11:30:21.008Z,42.41
2022-12-23T11:31:21.037Z,42.47
2022-12-23T11:32:20.955Z,42.45
2022-12-23T11:33:20.899Z,50.63
2022-12-23T11:34:20.874Z,46.85
2022-12-23T11:35:20.867Z,46.45
2022-12-23T11:36:20.787Z,87.54
2022-12-23T11:37:20.766Z,68.22
2022-12-23T11:38:20.724Z,71.44
2022-12-23T11:39:20.703Z,76.22
2022-12-23T11:40:20.672Z,71.80
2022-12-23T11:41:20.626Z,85.14
2022-12-23T11:42:20.578Z,91.17
2022-12-23T11:43:20.538Z,89.61
2022-12-23T11:44:20.498Z,88.84
2022-12-23T11:45:20.475Z,91.27
2022-12-23T11:46:20.553Z,86.76
2022-12-23T11:47:20.408Z,84.01
2022-12-23T11:48:20.371Z,79.67
2022-12-23T11:49:20.349Z,72.56
2022-12-23T11:50:20.297Z,70.64
2022-12-23T11:51:20.269Z,74.56
2022-12-23T11:52:20.235Z,69.58
2022-12-23T11:53:20.198Z,70.05
2022-12-23T11:54:20.154Z,69.08
2022-12-23T11:55:20.167Z,66.35
2022-12-23T11:56:20.139Z,67.03
2022-12-23T15:32:13.472Z,29.95
2022-12-23T15:33:43.223Z,29.18
2022-12-23T15:34:17.259Z,29.33
2022-12-23T15:35:13.394Z,29.37
2022-12-23T15:36:13.412Z,29.57
2022-12-23T15:37:13.357Z,29.07
2022-12-23T15:38:13.330Z,29.18
2022-12-23T15:39:13.313Z,25.36
2022-12-23T15:40:13.855Z,27.55
2022-12-23T15:41:13.255Z,28.50
2022-12-23T15:42:13.233Z,27.20
2022-12-23T15:43:13.204Z,30.33
2022-12-23T15:44:13.185Z,28.37
2022-12-23T15:45:13.177Z,28.99
2022-12-23T15:46:13.205Z,30.43
2022-12-23T15:47:13.183Z,27.19
2022-12-23T15:48:13.092Z,27.47
2022-12-23T15:49:13.075Z,27.85
2022-12-23T15:50:13.052Z,28.42
2022-12-23T15:51:13.024Z,28.94
2022-12-23T15:52:19.921Z,29.40
2022-12-23T15:54:12.976Z,27.50
2022-12-23T15:55:12.951Z,28.61
2022-12-23T15:56:12.928Z,28.65
2022-12-23T15:57:12.893Z,27.92
2022-12-23T15:58:12.884Z,25.76
2022-12-23T15:59:12.859Z,30.91
2022-12-23T16:00:12.854Z,28.69
2022-12-23T16:01:12.841Z,27.62
2022-12-23T16:02:40.908Z,27.84
2022-12-23T16:04:12.988Z,27.78
2022-12-23T16:05:12.773Z,27.31
2022-12-23T16:06:12.730Z,27.60
2022-12-23T16:07:12.713Z,29.84
2022-12-23T16:08:12.704Z,26.85
2022-12-23T16:09:12.663Z,30.17
2022-12-23T16:10:12.643Z,27.72
2022-12-23T16:11:12.634Z,30.74
2022-12-23T16:12:12.612Z,29.42
2022-12-23T16:13:12.594Z,27.94
2022-12-23T16:14:12.573Z,28.21
2022-12-23T16:15:12.556Z,28.02
2022-12-23T16:16:12.577Z,28.97
2022-12-23T16:17:12.529Z,29.20
2022-12-23T16:18:12.514Z,29.45
2022-12-23T16:19:12.504Z,28.75
2022-12-23T16:20:12.485Z,29.60
2022-12-23T16:21:12.465Z,29.22
2022-12-23T16:22:12.452Z,26.73
2022-12-23T16:23:12.440Z,26.99
2022-12-23T16:24:12.415Z,27.24
2022-12-23T16:25:12.409Z,27.33
2022-12-23T17:17:11.446Z,29.26
2022-12-23T17:18:11.441Z,27.70
2022-12-23T17:19:11.429Z,30.38
2022-12-23T17:20:11.400Z,28.75
2022-12-23T17:21:11.386Z,25.69
2022-12-23T17:22:11.381Z,31.55
2022-12-23T17:23:11.358Z,28.02
2022-12-23T17:24:11.356Z,32.91
2022-12-23T17:25:11.330Z,34.18
2022-12-23T17:26:11.322Z,26.77
2022-12-23T17:27:11.300Z,29.35
2022-12-23T17:28:11.291Z,29.62
2022-12-23T17:29:11.258Z,29.47
2022-12-23T17:30:11.251Z,26.78
2022-12-23T17:31:15.390Z,29.31
2022-12-23T17:32:12.321Z,29.64
2022-12-23T17:33:11.176Z,29.72
2022-12-23T17:34:11.166Z,29.53
2022-12-23T17:35:11.156Z,27.19
2022-12-23T17:36:11.236Z,24.48
2022-12-23T17:37:11.135Z,29.65
2022-12-23T17:38:11.108Z,27.89
2022-12-23T17:39:11.091Z,30.47
2022-12-23T17:40:11.083Z,26.65
2022-12-23T17:41:11.077Z,30.68
2022-12-23T17:42:11.058Z,27.45
2022-12-23T17:43:11.045Z,29.26
2022-12-23T17:44:11.025Z,26.07
2022-12-23T17:45:11.013Z,30.54
2022-12-23T17:46:11.025Z,26.25
2022-12-23T17:47:10.995Z,26.03
2022-12-23T17:48:16.290Z,27.37
2022-12-23T17:49:11.959Z,27.59
2022-12-23T17:50:10.930Z,27.86
2022-12-23T17:51:10.921Z,28.09
2022-12-23T17:52:10.919Z,29.14
2022-12-23T17:53:10.894Z,29.52
2022-12-23T17:54:10.886Z,31.23
2022-12-23T17:55:10.869Z,28.83
2022-12-23T17:56:10.848Z,32.00
2022-12-23T17:57:10.829Z,26.11
2022-12-23T17:58:10.814Z,25.31
2022-12-23T17:59:10.783Z,29.84
2022-12-23T18:00:10.767Z,26.57
2022-12-23T18:01:10.832Z,26.53
2022-12-23T18:02:10.808Z,28.00
2022-12-23T18:03:10.715Z,27.08
2022-12-23T18:04:10.704Z,29.46
2022-12-23T18:05:10.678Z,30.99
2022-12-23T18:06:10.678Z,29.33
2022-12-23T18:07:10.639Z,28.84
2022-12-23T18:08:10.640Z,27.40
2022-12-23T18:09:10.607Z,30.62
2022-12-23T18:10:10.582Z,27.90
2022-12-23T18:11:10.580Z,30.45
2022-12-23T18:12:10.551Z,30.41
2022-12-23T18:13:10.531Z,31.83
2022-12-23T18:14:10.510Z,31.51
2022-12-23T18:15:10.483Z,29.38
2022-12-23T18:16:10.519Z,27.26
2022-12-23T18:17:10.525Z,28.89
2022-12-23T18:18:10.435Z,31.25
2022-12-23T18:19:10.439Z,30.15
2022-12-23T18:20:10.410Z,27.61
2022-12-23T18:21:10.382Z,31.44
2022-12-23T18:22:10.395Z,29.17
2022-12-23T18:23:10.385Z,28.60
2022-12-23T18:24:10.332Z,27.31
2022-12-23T18:25:10.349Z,29.08
2022-12-23T18:26:10.306Z,27.13
2022-12-23T18:27:10.300Z,28.93
2022-12-23T18:28:10.272Z,26.96
2022-12-23T18:29:10.257Z,27.98
2022-12-23T18:30:10.246Z,28.26
2022-12-23T18:31:10.284Z,30.02
2022-12-23T18:32:10.213Z,27.39
2022-12-23T18:33:10.209Z,27.69
2022-12-23T18:34:10.188Z,27.70
2022-12-23T18:35:10.176Z,28.27
2022-12-23T18:36:10.212Z,28.09
2022-12-23T18:37:10.143Z,30.21
2022-12-23T18:38:10.148Z,29.08
2022-12-23T18:39:10.120Z,30.45
2022-12-23T18:40:10.117Z,29.08
2022-12-23T18:42:10.087Z,27.33
2022-12-23T19:11:10.388Z,31.71
